METAR Data
IDs: Format: Raw Decoded Include TAF

Data at: 2242 UTC 26 Feb 2020

METAR for:KBNA (Nashville Intl, TN, US)
Text:KBNA 262153Z 30012G19KT 10SM BKN028 OVC037 04/M02 A3004 RMK AO2 RAB02E12 SLP174 P0000 T00441022
Temperature: 4.4°C ( 40°F)
Dewpoint: -2.2°C ( 28°F) [RH = 62%]
Pressure (altimeter):30.04 inches Hg (1017.4 mb) [Sea level pressure: 1017.4 mb]
Winds:from the WNW (300 degrees) at 14 MPH (12 knots; 6.2 m/s) gusting to 22 MPH (19 knots; 9.8 m/s)
Visibility:10 or more sm (16+ km)
Ceiling:2800 feet AGL
Clouds: broken clouds at 2800 feet AGL, overcast cloud deck at 3700 feet AGL
Text:KBNA 262053Z 30012G24KT 10SM OVC027 05/M02 A3001 RMK AO2 RAE1959 SLP162 P0000 60000 T00501017 53007
Temperature: 5.0°C ( 41°F)
Dewpoint: -1.7°C ( 29°F) [RH = 62%]
Pressure (altimeter):30.01 inches Hg (1016.3 mb) [Sea level pressure: 1016.2 mb]
Winds:from the WNW (300 degrees) at 14 MPH (12 knots; 6.2 m/s) gusting to 28 MPH (24 knots; 12.3 m/s)
Visibility:10 or more sm (16+ km)
Ceiling:2700 feet AGL
Clouds: overcast cloud deck at 2700 feet AGL
Text:KBNA 261953Z 30010G23KT 7SM -RA BKN021 OVC031 04/M01 A2998 RMK AO2 RAB13E23B50 SLP153 P0000 T00441006
Temperature: 4.4°C ( 40°F)
Dewpoint: -0.6°C ( 31°F) [RH = 70%]
Pressure (altimeter):29.98 inches Hg (1015.3 mb) [Sea level pressure: 1015.3 mb]
Winds:from the WNW (300 degrees) at 12 MPH (10 knots; 5.1 m/s) gusting to 26 MPH (23 knots; 11.8 m/s)
Visibility: 7 sm ( 11 km)
Ceiling:2100 feet AGL
Clouds: broken clouds at 2100 feet AGL, overcast cloud deck at 3100 feet AGL
Weather:-RA (light rain)